sensor_id;sensor_type;location;lat;lon;timestamp;temperature;humidity
21849;DHT22;11089;49.852;19.700;2024-01-10T00:02:33;-14.00;1.00
21849;DHT22;11089;49.852;19.700;2024-01-10T00:05:34;-13.90;1.00
21849;DHT22;11089;49.852;19.700;2024-01-10T00:08:35;-13.90;1.00
21849;DHT22;11089;49.852;19.700;2024-01-10T00:11:36;-14.00;1.00
21849;DHT22;11089;49.852;19.700;2024-01-10T00:14:37;-14.30;1.00
21849;DHT22;11089;49.852;19.700;2024-01-10T00:17:38;-14.30;1.00
21849;DHT22;11089;49.852;19.700;2024-01-10T00:20:41;-14.10;1.00
21849;DHT22;11089;49.852;19.700;2024-01-10T00:23:42;-14.10;1.00
21849;DHT22;11089;49.852;19.700;2024-01-10T00:26:43;-14.20;1.00
21849;DHT22;11089;49.852;19.700;2024-01-10T00:29:44;-14.10;1.00
21849;DHT22;11089;49.852;19.700;2024-01-10T00:32:45;-13.80;1.00
21849;DHT22;11089;49.852;19.700;2024-01-10T00:35:46;-13.90;1.00
21849;DHT22;11089;49.852;19.700;2024-01-10T00:38:47;-13.90;1.00
21849;DHT22;11089;49.852;19.700;2024-01-10T00:41:48;-13.90;1.00
21849;DHT22;11089;49.852;19.700;2024-01-10T00:44:49;-13.90;1.00
21849;DHT22;11089;49.852;19.700;2024-01-10T00:47:51;-14.00;1.00
21849;DHT22;11089;49.852;19.700;2024-01-10T00:50:52;-14.00;1.00
21849;DHT22;11089;49.852;19.700;2024-01-10T00:53:52;-14.10;1.00
21849;DHT22;11089;49.852;19.700;2024-01-10T00:56:53;-14.00;1.00
21849;DHT22;11089;49.852;19.700;2024-01-10T00:59:54;-14.00;1.00
21849;DHT22;11089;49.852;19.700;2024-01-10T01:02:55;-13.90;1.00
21849;DHT22;11089;49.852;19.700;2024-01-10T01:05:56;-13.90;1.00
21849;DHT22;11089;49.852;19.700;2024-01-10T01:08:57;-13.90;1.00
21849;DHT22;11089;49.852;19.700;2024-01-10T01:11:59;-14.00;1.00
21849;DHT22;11089;49.852;19.700;2024-01-10T01:15:00;-13.90;1.00
21849;DHT22;11089;49.852;19.700;2024-01-10T01:18:02;-13.90;3.60
21849;DHT22;11089;49.852;19.700;2024-01-10T01:21:10;-13.80;20.50
21849;DHT22;11089;49.852;19.700;2024-01-10T01:24:10;-13.80;17.00
21849;DHT22;11089;49.852;19.700;2024-01-10T01:27:12;-13.70;11.90
21849;DHT22;11089;49.852;19.700;2024-01-10T01:30:13;-13.70;1.00
21849;DHT22;11089;49.852;19.700;2024-01-10T01:33:14;-14.10;1.00
21849;DHT22;11089;49.852;19.700;2024-01-10T01:36:14;-14.00;1.00
21849;DHT22;11089;49.852;19.700;2024-01-10T01:39:15;-14.00;1.00
21849;DHT22;11089;49.852;19.700;2024-01-10T01:42:16;-13.90;1.00
21849;DHT22;11089;49.852;19.700;2024-01-10T01:45:17;-14.10;1.00
21849;DHT22;11089;49.852;19.700;2024-01-10T01:48:19;-14.20;1.00
21849;DHT22;11089;49.852;19.700;2024-01-10T01:51:22;-14.20;1.00
21849;DHT22;11089;49.852;19.700;2024-01-10T01:54:23;-14.10;1.00
21849;DHT22;11089;49.852;19.700;2024-01-10T01:57:24;-14.00;1.00
21849;DHT22;11089;49.852;19.700;2024-01-10T02:00:25;-14.10;1.00
21849;DHT22;11089;49.852;19.700;2024-01-10T02:03:26;-14.30;1.00
21849;DHT22;11089;49.852;19.700;2024-01-10T02:06:27;-14.30;1.00
21849;DHT22;11089;49.852;19.700;2024-01-10T02:09:30;-14.20;1.00
21849;DHT22;11089;49.852;19.700;2024-01-10T02:12:31;-14.20;1.00
21849;DHT22;11089;49.852;19.700;2024-01-10T02:15:32;-14.20;1.00
21849;DHT22;11089;49.852;19.700;2024-01-10T02:18:34;-14.20;1.00
21849;DHT22;11089;49.852;19.700;2024-01-10T02:21:35;-14.10;1.00
21849;DHT22;11089;49.852;19.700;2024-01-10T02:24:36;-14.30;1.00
21849;DHT22;11089;49.852;19.700;2024-01-10T02:27:38;-14.20;1.00
21849;DHT22;11089;49.852;19.700;2024-01-10T02:30:40;-14.20;1.00
21849;DHT22;11089;49.852;19.700;2024-01-10T02:33:40;-14.10;1.00
21849;DHT22;11089;49.852;19.700;2024-01-10T02:36:41;-14.10;1.00
21849;DHT22;11089;49.852;19.700;2024-01-10T02:39:42;-14.00;1.00
21849;DHT22;11089;49.852;19.700;2024-01-10T02:42:45;-14.00;1.00
21849;DHT22;11089;49.852;19.700;2024-01-10T02:45:46;-14.00;1.00
21849;DHT22;11089;49.852;19.700;2024-01-10T02:48:47;-14.00;1.00
21849;DHT22;11089;49.852;19.700;2024-01-10T02:51:48;-13.90;1.00
21849;DHT22;11089;49.852;19.700;2024-01-10T02:54:49;-13.90;1.00
21849;DHT22;11089;49.852;19.700;2024-01-10T02:57:50;-13.90;23.80
21849;DHT22;11089;49.852;19.700;2024-01-10T03:00:52;-14.00;1.00
21849;DHT22;11089;49.852;19.700;2024-01-10T03:03:53;-13.90;17.20
21849;DHT22;11089;49.852;19.700;2024-01-10T03:06:55;-13.70;91.30
21849;DHT22;11089;49.852;19.700;2024-01-10T03:09:56;-13.70;99.90
21849;DHT22;11089;49.852;19.700;2024-01-10T03:12:57;-13.50;99.90
21849;DHT22;11089;49.852;19.700;2024-01-10T03:15:59;-13.50;99.90
21849;DHT22;11089;49.852;19.700;2024-01-10T03:19:01;-13.40;99.90
21849;DHT22;11089;49.852;19.700;2024-01-10T03:22:02;-13.30;99.90
21849;DHT22;11089;49.852;19.700;2024-01-10T03:25:03;-13.30;99.90
21849;DHT22;11089;49.852;19.700;2024-01-10T03:28:04;-13.40;99.90
21849;DHT22;11089;49.852;19.700;2024-01-10T03:31:05;-13.50;99.90
21849;DHT22;11089;49.852;19.700;2024-01-10T03:34:06;-13.50;99.90
21849;DHT22;11089;49.852;19.700;2024-01-10T03:37:07;-13.50;99.90
21849;DHT22;11089;49.852;19.700;2024-01-10T03:40:08;-13.40;99.90
21849;DHT22;11089;49.852;19.700;2024-01-10T03:43:09;-13.30;75.10
21849;DHT22;11089;49.852;19.700;2024-01-10T03:46:11;-13.30;58.40
21849;DHT22;11089;49.852;19.700;2024-01-10T03:49:13;-13.30;99.90
21849;DHT22;11089;49.852;19.700;2024-01-10T03:52:14;-13.50;99.90
21849;DHT22;11089;49.852;19.700;2024-01-10T03:55:15;-13.50;99.90
21849;DHT22;11089;49.852;19.700;2024-01-10T03:58:16;-13.50;64.50
21849;DHT22;11089;49.852;19.700;2024-01-10T04:01:22;-13.60;45.60
21849;DHT22;11089;49.852;19.700;2024-01-10T04:04:24;-13.60;99.90
21849;DHT22;11089;49.852;19.700;2024-01-10T04:07:27;-13.40;99.90
21849;DHT22;11089;49.852;19.700;2024-01-10T04:10:29;-13.30;99.90
21849;DHT22;11089;49.852;19.700;2024-01-10T04:13:30;-13.30;99.90
21849;DHT22;11089;49.852;19.700;2024-01-10T04:16:31;-13.30;99.90
21849;DHT22;11089;49.852;19.700;2024-01-10T04:19:32;-13.20;99.90
21849;DHT22;11089;49.852;19.700;2024-01-10T04:22:33;-13.30;99.90
21849;DHT22;11089;49.852;19.700;2024-01-10T04:25:34;-13.30;99.90
21849;DHT22;11089;49.852;19.700;2024-01-10T04:28:35;-13.30;99.90
21849;DHT22;11089;49.852;19.700;2024-01-10T04:31:36;-13.10;99.90
21849;DHT22;11089;49.852;19.700;2024-01-10T04:34:38;-13.40;99.90
21849;DHT22;11089;49.852;19.700;2024-01-10T04:37:39;-13.40;99.90
21849;DHT22;11089;49.852;19.700;2024-01-10T04:40:41;-13.30;99.90
21849;DHT22;11089;49.852;19.700;2024-01-10T04:43:42;-13.40;99.90
21849;DHT22;11089;49.852;19.700;2024-01-10T04:46:44;-13.30;99.90
21849;DHT22;11089;49.852;19.700;2024-01-10T04:49:45;-13.20;99.90
21849;DHT22;11089;49.852;19.700;2024-01-10T04:52:46;-13.20;99.90
21849;DHT22;11089;49.852;19.700;2024-01-10T04:55:47;-13.20;99.90
21849;DHT22;11089;49.852;19.700;2024-01-10T04:58:47;-13.20;99.90
21849;DHT22;11089;49.852;19.700;2024-01-10T05:01:49;-13.30;99.90
21849;DHT22;11089;49.852;19.700;2024-01-10T05:04:50;-13.30;99.90
21849;DHT22;11089;49.852;19.700;2024-01-10T05:07:51;-13.40;99.90
21849;DHT22;11089;49.852;19.700;2024-01-10T05:10:52;-13.30;99.90
21849;DHT22;11089;49.852;19.700;2024-01-10T05:13:53;-13.20;99.90
21849;DHT22;11089;49.852;19.700;2024-01-10T05:16:54;-13.20;99.90
21849;DHT22;11089;49.852;19.700;2024-01-10T05:19:55;-13.20;99.90
21849;DHT22;11089;49.852;19.700;2024-01-10T05:22:56;-13.20;99.90
21849;DHT22;11089;49.852;19.700;2024-01-10T05:25:59;-13.20;99.90
21849;DHT22;11089;49.852;19.700;2024-01-10T05:29:00;-13.20;99.90
21849;DHT22;11089;49.852;19.700;2024-01-10T05:32:01;-13.20;99.90
21849;DHT22;11089;49.852;19.700;2024-01-10T05:35:02;-13.40;52.50
21849;DHT22;11089;49.852;19.700;2024-01-10T05:38:03;-13.50;48.20
21849;DHT22;11089;49.852;19.700;2024-01-10T05:41:04;-13.50;99.90
21849;DHT22;11089;49.852;19.700;2024-01-10T05:44:05;-13.30;99.90
21849;DHT22;11089;49.852;19.700;2024-01-10T05:47:06;-13.10;99.90
21849;DHT22;11089;49.852;19.700;2024-01-10T05:50:07;-13.10;99.90
21849;DHT22;11089;49.852;19.700;2024-01-10T05:53:08;-13.10;99.90
21849;DHT22;11089;49.852;19.700;2024-01-10T05:56:14;-13.20;99.90
21849;DHT22;11089;49.852;19.700;2024-01-10T05:59:15;-13.40;36.20
21849;DHT22;11089;49.852;19.700;2024-01-10T06:02:17;-13.40;99.90
21849;DHT22;11089;49.852;19.700;2024-01-10T06:05:18;-13.40;99.90
21849;DHT22;11089;49.852;19.700;2024-01-10T06:08:19;-13.40;99.90
21849;DHT22;11089;49.852;19.700;2024-01-10T06:11:24;-13.40;99.90
21849;DHT22;11089;49.852;19.700;2024-01-10T06:14:26;-13.30;99.90
21849;DHT22;11089;49.852;19.700;2024-01-10T06:17:27;-13.50;1.00
21849;DHT22;11089;49.852;19.700;2024-01-10T06:20:28;-13.60;1.90
21849;DHT22;11089;49.852;19.700;2024-01-10T06:23:29;-13.70;28.70
21849;DHT22;11089;49.852;19.700;2024-01-10T06:26:30;-13.60;51.10
21849;DHT22;11089;49.852;19.700;2024-01-10T06:29:31;-13.50;99.90
21849;DHT22;11089;49.852;19.700;2024-01-10T06:32:31;-13.50;99.90
21849;DHT22;11089;49.852;19.700;2024-01-10T06:35:32;-13.50;99.90
21849;DHT22;11089;49.852;19.700;2024-01-10T06:38:34;-13.70;99.90
21849;DHT22;11089;49.852;19.700;2024-01-10T06:41:35;-13.70;99.90
21849;DHT22;11089;49.852;19.700;2024-01-10T06:44:36;-13.80;68.30
21849;DHT22;11089;49.852;19.700;2024-01-10T06:47:37;-13.80;99.90
21849;DHT22;11089;49.852;19.700;2024-01-10T06:50:38;-13.70;99.90
21849;DHT22;11089;49.852;19.700;2024-01-10T06:53:39;-13.60;99.90
21849;DHT22;11089;49.852;19.700;2024-01-10T06:56:40;-13.50;99.90
21849;DHT22;11089;49.852;19.700;2024-01-10T06:59:42;-13.40;99.90
21849;DHT22;11089;49.852;19.700;2024-01-10T07:02:44;-13.50;99.90
21849;DHT22;11089;49.852;19.700;2024-01-10T07:05:45;-13.40;99.90
21849;DHT22;11089;49.852;19.700;2024-01-10T07:08:48;-13.30;99.90
21849;DHT22;11089;49.852;19.700;2024-01-10T07:11:49;-13.20;99.90
21849;DHT22;11089;49.852;19.700;2024-01-10T07:14:50;-13.30;95.50
21849;DHT22;11089;49.852;19.700;2024-01-10T07:17:51;-13.20;99.90
21849;DHT22;11089;49.852;19.700;2024-01-10T07:20:52;-13.10;90.50
21849;DHT22;11089;49.852;19.700;2024-01-10T07:23:53;-13.20;96.30
21849;DHT22;11089;49.852;19.700;2024-01-10T07:26:56;-13.10;99.90
21849;DHT22;11089;49.852;19.700;2024-01-10T07:29:57;-13.00;99.90
21849;DHT22;11089;49.852;19.700;2024-01-10T07:32:58;-13.00;99.90
21849;DHT22;11089;49.852;19.700;2024-01-10T07:36:01;-12.90;99.90
21849;DHT22;11089;49.852;19.700;2024-01-10T07:39:02;-12.90;99.90
21849;DHT22;11089;49.852;19.700;2024-01-10T07:42:04;-12.90;99.90
21849;DHT22;11089;49.852;19.700;2024-01-10T07:45:05;-12.90;99.90
21849;DHT22;11089;49.852;19.700;2024-01-10T07:48:07;-12.90;99.90
21849;DHT22;11089;49.852;19.700;2024-01-10T07:51:08;-12.80;99.90
21849;DHT22;11089;49.852;19.700;2024-01-10T07:54:09;-12.70;99.90
21849;DHT22;11089;49.852;19.700;2024-01-10T07:57:10;-12.60;99.90
21849;DHT22;11089;49.852;19.700;2024-01-10T08:00:12;-12.50;99.90
21849;DHT22;11089;49.852;19.700;2024-01-10T08:03:14;-12.40;99.90
21849;DHT22;11089;49.852;19.700;2024-01-10T08:06:14;-12.20;99.90
21849;DHT22;11089;49.852;19.700;2024-01-10T08:09:16;-12.10;99.90
21849;DHT22;11089;49.852;19.700;2024-01-10T08:12:17;-12.10;1.00
21849;DHT22;11089;49.852;19.700;2024-01-10T08:15:18;-12.00;1.00
21849;DHT22;11089;49.852;19.700;2024-01-10T08:18:20;-11.90;1.00
21849;DHT22;11089;49.852;19.700;2024-01-10T08:21:21;-11.80;1.00
21849;DHT22;11089;49.852;19.700;2024-01-10T08:24:22;-11.70;1.00
21849;DHT22;11089;49.852;19.700;2024-01-10T08:27:24;-11.70;1.00
21849;DHT22;11089;49.852;19.700;2024-01-10T08:30:25;-11.60;1.00
21849;DHT22;11089;49.852;19.700;2024-01-10T08:33:27;-11.50;1.00
21849;DHT22;11089;49.852;19.700;2024-01-10T08:36:28;-11.40;1.00
21849;DHT22;11089;49.852;19.700;2024-01-10T08:39:29;-11.20;1.00
21849;DHT22;11089;49.852;19.700;2024-01-10T08:42:31;-11.10;1.00
21849;DHT22;11089;49.852;19.700;2024-01-10T08:45:32;-11.00;1.00
21849;DHT22;11089;49.852;19.700;2024-01-10T08:48:33;-10.70;1.00
21849;DHT22;11089;49.852;19.700;2024-01-10T08:51:34;-10.20;46.80
21849;DHT22;11089;49.852;19.700;2024-01-10T08:54:36;-9.70;99.90
21849;DHT22;11089;49.852;19.700;2024-01-10T08:57:37;-9.20;1.00
21849;DHT22;11089;49.852;19.700;2024-01-10T09:00:39;-8.80;1.00
21849;DHT22;11089;49.852;19.700;2024-01-10T09:03:40;-8.40;1.00
21849;DHT22;11089;49.852;19.700;2024-01-10T09:06:40;-8.00;1.00
21849;DHT22;11089;49.852;19.700;2024-01-10T09:09:41;-7.70;1.00
21849;DHT22;11089;49.852;19.700;2024-01-10T09:12:42;-7.30;1.00
21849;DHT22;11089;49.852;19.700;2024-01-10T09:15:46;-7.00;1.00
21849;DHT22;11089;49.852;19.700;2024-01-10T09:18:47;-6.60;1.00
21849;DHT22;11089;49.852;19.700;2024-01-10T09:21:50;-6.20;1.00
21849;DHT22;11089;49.852;19.700;2024-01-10T09:24:52;-5.70;1.00
21849;DHT22;11089;49.852;19.700;2024-01-10T09:27:53;-5.20;99.90
21849;DHT22;11089;49.852;19.700;2024-01-10T09:30:54;-4.70;99.90
21849;DHT22;11089;49.852;19.700;2024-01-10T09:33:56;-4.30;99.90
21849;DHT22;11089;49.852;19.700;2024-01-10T09:36:57;-3.80;99.90
21849;DHT22;11089;49.852;19.700;2024-01-10T09:39:58;-3.40;25.60
21849;DHT22;11089;49.852;19.700;2024-01-10T09:43:00;-2.90;1.00
21849;DHT22;11089;49.852;19.700;2024-01-10T09:46:01;-2.50;1.00
21849;DHT22;11089;49.852;19.700;2024-01-10T09:49:05;-2.20;1.00
21849;DHT22;11089;49.852;19.700;2024-01-10T09:52:09;-2.10;1.00
21849;DHT22;11089;49.852;19.700;2024-01-10T09:55:11;-2.10;1.00
21849;DHT22;11089;49.852;19.700;2024-01-10T09:58:13;-1.90;1.00
21849;DHT22;11089;49.852;19.700;2024-01-10T10:01:14;-1.90;1.00
21849;DHT22;11089;49.852;19.700;2024-01-10T10:04:17;-1.80;1.00
21849;DHT22;11089;49.852;19.700;2024-01-10T10:07:18;-1.80;1.00
21849;DHT22;11089;49.852;19.700;2024-01-10T10:10:19;-1.80;1.00
21849;DHT22;11089;49.852;19.700;2024-01-10T10:13:25;-1.70;1.00
21849;DHT22;11089;49.852;19.700;2024-01-10T10:16:27;-1.60;1.00
21849;DHT22;11089;49.852;19.700;2024-01-10T10:19:27;-1.40;1.00
21849;DHT22;11089;49.852;19.700;2024-01-10T10:22:28;-1.20;1.00
21849;DHT22;11089;49.852;19.700;2024-01-10T10:25:31;-0.90;1.00
21849;DHT22;11089;49.852;19.700;2024-01-10T10:28:32;-0.80;1.00
21849;DHT22;11089;49.852;19.700;2024-01-10T10:31:33;-0.70;1.00
21849;DHT22;11089;49.852;19.700;2024-01-10T10:34:35;-1.00;1.00
21849;DHT22;11089;49.852;19.700;2024-01-10T10:37:36;-0.90;1.00
21849;DHT22;11089;49.852;19.700;2024-01-10T10:40:37;-0.80;1.00
21849;DHT22;11089;49.852;19.700;2024-01-10T10:43:40;-0.70;1.00
21849;DHT22;11089;49.852;19.700;2024-01-10T10:46:43;-0.50;1.00
21849;DHT22;11089;49.852;19.700;2024-01-10T10:49:52;-0.20;1.00
21849;DHT22;11089;49.852;19.700;2024-01-10T10:52:55;0.00;1.00
21849;DHT22;11089;49.852;19.700;2024-01-10T10:55:59;0.20;1.00
21849;DHT22;11089;49.852;19.700;2024-01-10T10:59:01;0.30;1.00
21849;DHT22;11089;49.852;19.700;2024-01-10T11:02:05;0.50;1.00
21849;DHT22;11089;49.852;19.700;2024-01-10T11:05:10;0.60;1.00
21849;DHT22;11089;49.852;19.700;2024-01-10T11:08:14;0.70;1.00
21849;DHT22;11089;49.852;19.700;2024-01-10T11:24:25;1.10;1.00
21849;DHT22;11089;49.852;19.700;2024-01-10T11:27:27;1.30;1.00
21849;DHT22;11089;49.852;19.700;2024-01-10T11:33:36;1.40;1.00
21849;DHT22;11089;49.852;19.700;2024-01-10T11:37:10;1.50;1.00
21849;DHT22;11089;49.852;19.700;2024-01-10T11:40:12;1.30;1.00
21849;DHT22;11089;49.852;19.700;2024-01-10T11:43:13;1.30;1.00
21849;DHT22;11089;49.852;19.700;2024-01-10T11:46:15;1.60;1.00
21849;DHT22;11089;49.852;19.700;2024-01-10T11:49:19;1.70;1.00
21849;DHT22;11089;49.852;19.700;2024-01-10T11:52:22;1.50;1.00
21849;DHT22;11089;49.852;19.700;2024-01-10T11:56:13;1.70;1.00
21849;DHT22;11089;49.852;19.700;2024-01-10T11:59:10;1.80;1.00
21849;DHT22;11089;49.852;19.700;2024-01-10T12:02:15;1.70;1.00
21849;DHT22;11089;49.852;19.700;2024-01-10T12:05:17;1.70;1.00
21849;DHT22;11089;49.852;19.700;2024-01-10T12:08:18;1.80;1.00
21849;DHT22;11089;49.852;19.700;2024-01-10T12:11:20;1.80;1.00
21849;DHT22;11089;49.852;19.700;2024-01-10T12:14:21;1.80;1.00
21849;DHT22;11089;49.852;19.700;2024-01-10T12:17:27;1.70;1.00
21849;DHT22;11089;49.852;19.700;2024-01-10T12:20:28;2.00;1.00
21849;DHT22;11089;49.852;19.700;2024-01-10T12:23:29;2.10;1.00
21849;DHT22;11089;49.852;19.700;2024-01-10T12:26:32;2.40;1.00
21849;DHT22;11089;49.852;19.700;2024-01-10T12:29:33;2.30;1.00
21849;DHT22;11089;49.852;19.700;2024-01-10T12:32:34;2.50;1.00
21849;DHT22;11089;49.852;19.700;2024-01-10T12:35:35;2.60;1.00
21849;DHT22;11089;49.852;19.700;2024-01-10T12:38:38;2.30;1.00
21849;DHT22;11089;49.852;19.700;2024-01-10T12:41:40;2.50;1.00
21849;DHT22;11089;49.852;19.700;2024-01-10T12:44:45;2.90;1.00
21849;DHT22;11089;49.852;19.700;2024-01-10T12:47:53;3.10;1.00
21849;DHT22;11089;49.852;19.700;2024-01-10T12:50:54;3.20;1.00
21849;DHT22;11089;49.852;19.700;2024-01-10T12:53:56;3.10;1.00
21849;DHT22;11089;49.852;19.700;2024-01-10T12:56:59;3.20;1.00
21849;DHT22;11089;49.852;19.700;2024-01-10T13:00:00;2.70;1.00
21849;DHT22;11089;49.852;19.700;2024-01-10T13:03:01;2.80;1.00
21849;DHT22;11089;49.852;19.700;2024-01-10T13:06:04;3.00;1.00
21849;DHT22;11089;49.852;19.700;2024-01-10T13:09:06;3.10;1.00
21849;DHT22;11089;49.852;19.700;2024-01-10T13:12:07;3.30;1.00
21849;DHT22;11089;49.852;19.700;2024-01-10T13:15:09;3.00;1.00
21849;DHT22;11089;49.852;19.700;2024-01-10T13:18:09;3.00;1.00
21849;DHT22;11089;49.852;19.700;2024-01-10T13:21:10;2.80;1.00
21849;DHT22;11089;49.852;19.700;2024-01-10T13:24:12;2.80;1.00
21849;DHT22;11089;49.852;19.700;2024-01-10T13:27:13;2.80;1.00
21849;DHT22;11089;49.852;19.700;2024-01-10T13:30:14;2.80;1.00
21849;DHT22;11089;49.852;19.700;2024-01-10T13:33:15;2.70;1.00
21849;DHT22;11089;49.852;19.700;2024-01-10T13:36:16;2.50;1.00
21849;DHT22;11089;49.852;19.700;2024-01-10T13:39:17;2.40;1.00
21849;DHT22;11089;49.852;19.700;2024-01-10T13:42:18;2.40;1.00
21849;DHT22;11089;49.852;19.700;2024-01-10T13:45:19;2.20;1.00
21849;DHT22;11089;49.852;19.700;2024-01-10T13:48:21;2.10;1.00
21849;DHT22;11089;49.852;19.700;2024-01-10T13:51:22;2.20;1.00
21849;DHT22;11089;49.852;19.700;2024-01-10T13:54:22;2.00;1.00
21849;DHT22;11089;49.852;19.700;2024-01-10T13:57:23;1.90;1.00
21849;DHT22;11089;49.852;19.700;2024-01-10T14:00:24;1.80;1.00
21849;DHT22;11089;49.852;19.700;2024-01-10T14:03:25;1.70;1.00
21849;DHT22;11089;49.852;19.700;2024-01-10T14:06:27;1.40;1.00
21849;DHT22;11089;49.852;19.700;2024-01-10T14:09:28;1.00;1.00
21849;DHT22;11089;49.852;19.700;2024-01-10T14:12:29;0.80;1.00
21849;DHT22;11089;49.852;19.700;2024-01-10T14:15:30;0.60;1.00
21849;DHT22;11089;49.852;19.700;2024-01-10T14:18:31;0.40;1.00
21849;DHT22;11089;49.852;19.700;2024-01-10T14:21:31;0.20;1.00
21849;DHT22;11089;49.852;19.700;2024-01-10T14:24:32;0.00;1.00
21849;DHT22;11089;49.852;19.700;2024-01-10T14:27:33;-0.10;1.00
21849;DHT22;11089;49.852;19.700;2024-01-10T14:30:34;-0.30;1.00
21849;DHT22;11089;49.852;19.700;2024-01-10T14:33:36;-0.40;1.00
21849;DHT22;11089;49.852;19.700;2024-01-10T14:36:39;-0.50;1.00
21849;DHT22;11089;49.852;19.700;2024-01-10T14:39:40;-0.70;1.00
21849;DHT22;11089;49.852;19.700;2024-01-10T14:42:41;-1.00;1.00
21849;DHT22;11089;49.852;19.700;2024-01-10T14:45:43;-1.30;1.00
21849;DHT22;11089;49.852;19.700;2024-01-10T14:48:44;-1.50;1.00
21849;DHT22;11089;49.852;19.700;2024-01-10T14:51:45;-1.60;1.00
21849;DHT22;11089;49.852;19.700;2024-01-10T14:54:47;-1.80;1.00
21849;DHT22;11089;49.852;19.700;2024-01-10T14:57:49;-1.90;1.00
21849;DHT22;11089;49.852;19.700;2024-01-10T15:00:50;-2.00;1.00
21849;DHT22;11089;49.852;19.700;2024-01-10T15:03:51;-2.20;1.00
21849;DHT22;11089;49.852;19.700;2024-01-10T15:06:55;-2.10;1.00
21849;DHT22;11089;49.852;19.700;2024-01-10T15:09:57;-2.10;1.00
21849;DHT22;11089;49.852;19.700;2024-01-10T15:13:03;-2.20;1.00
21849;DHT22;11089;49.852;19.700;2024-01-10T15:16:04;-2.40;1.00
21849;DHT22;11089;49.852;19.700;2024-01-10T15:19:05;-2.40;1.00
21849;DHT22;11089;49.852;19.700;2024-01-10T15:22:07;-2.50;1.00
21849;DHT22;11089;49.852;19.700;2024-01-10T15:25:09;-2.80;56.30
21849;DHT22;11089;49.852;19.700;2024-01-10T15:28:11;-2.90;99.90
21849;DHT22;11089;49.852;19.700;2024-01-10T15:31:17;-3.00;99.90
21849;DHT22;11089;49.852;19.700;2024-01-10T15:34:18;-3.10;99.90
21849;DHT22;11089;49.852;19.700;2024-01-10T15:37:19;-3.20;99.90
21849;DHT22;11089;49.852;19.700;2024-01-10T15:40:20;-3.20;99.90
21849;DHT22;11089;49.852;19.700;2024-01-10T15:43:21;-3.30;99.90
21849;DHT22;11089;49.852;19.700;2024-01-10T15:46:22;-3.40;99.90
21849;DHT22;11089;49.852;19.700;2024-01-10T15:49:23;-3.50;99.90
21849;DHT22;11089;49.852;19.700;2024-01-10T15:52:24;-3.60;99.90
21849;DHT22;11089;49.852;19.700;2024-01-10T15:55:27;-3.70;1.00
21849;DHT22;11089;49.852;19.700;2024-01-10T15:58:28;-3.80;1.00
21849;DHT22;11089;49.852;19.700;2024-01-10T16:01:29;-3.80;1.00
21849;DHT22;11089;49.852;19.700;2024-01-10T16:04:30;-3.90;1.00
21849;DHT22;11089;49.852;19.700;2024-01-10T16:07:31;-3.90;1.00
21849;DHT22;11089;49.852;19.700;2024-01-10T16:10:31;-4.00;1.00
21849;DHT22;11089;49.852;19.700;2024-01-10T16:13:32;-4.00;1.00
21849;DHT22;11089;49.852;19.700;2024-01-10T16:16:33;-4.20;1.00
21849;DHT22;11089;49.852;19.700;2024-01-10T16:19:35;-4.30;1.00
21849;DHT22;11089;49.852;19.700;2024-01-10T16:22:37;-4.30;1.00
21849;DHT22;11089;49.852;19.700;2024-01-10T16:25:38;-4.20;1.00
21849;DHT22;11089;49.852;19.700;2024-01-10T16:28:39;-4.30;1.00
21849;DHT22;11089;49.852;19.700;2024-01-10T16:31:40;-4.40;1.00
21849;DHT22;11089;49.852;19.700;2024-01-10T16:34:41;-4.40;1.00
21849;DHT22;11089;49.852;19.700;2024-01-10T16:37:42;-4.40;1.00
21849;DHT22;11089;49.852;19.700;2024-01-10T16:40:43;-4.30;1.00
21849;DHT22;11089;49.852;19.700;2024-01-10T16:43:43;-4.40;1.00
21849;DHT22;11089;49.852;19.700;2024-01-10T16:46:44;-4.50;1.00
21849;DHT22;11089;49.852;19.700;2024-01-10T16:49:45;-4.50;1.00
21849;DHT22;11089;49.852;19.700;2024-01-10T16:52:46;-4.40;1.00
21849;DHT22;11089;49.852;19.700;2024-01-10T16:55:48;-4.40;1.00
21849;DHT22;11089;49.852;19.700;2024-01-10T16:58:50;-4.40;1.00
21849;DHT22;11089;49.852;19.700;2024-01-10T17:01:51;-4.50;1.00
21849;DHT22;11089;49.852;19.700;2024-01-10T17:04:53;-4.50;1.00
21849;DHT22;11089;49.852;19.700;2024-01-10T17:07:55;-4.50;1.00
21849;DHT22;11089;49.852;19.700;2024-01-10T17:10:56;-4.60;1.00
21849;DHT22;11089;49.852;19.700;2024-01-10T17:13:57;-4.50;99.90
21849;DHT22;11089;49.852;19.700;2024-01-10T17:16:58;-4.50;99.90
21849;DHT22;11089;49.852;19.700;2024-01-10T17:19:59;-4.60;1.00
21849;DHT22;11089;49.852;19.700;2024-01-10T17:23:00;-4.60;99.90
21849;DHT22;11089;49.852;19.700;2024-01-10T17:26:01;-4.60;1.00
21849;DHT22;11089;49.852;19.700;2024-01-10T17:29:03;-4.70;99.90
21849;DHT22;11089;49.852;19.700;2024-01-10T17:32:06;-4.70;99.90
21849;DHT22;11089;49.852;19.700;2024-01-10T17:35:07;-4.70;99.90
21849;DHT22;11089;49.852;19.700;2024-01-10T17:38:08;-4.80;99.90
21849;DHT22;11089;49.852;19.700;2024-01-10T17:41:09;-4.90;99.90
21849;DHT22;11089;49.852;19.700;2024-01-10T17:44:13;-4.90;99.90
21849;DHT22;11089;49.852;19.700;2024-01-10T17:47:14;-4.80;1.00
21849;DHT22;11089;49.852;19.700;2024-01-10T17:50:16;-5.00;99.90
21849;DHT22;11089;49.852;19.700;2024-01-10T17:53:18;-5.20;99.90
21849;DHT22;11089;49.852;19.700;2024-01-10T17:56:20;-5.20;99.90
21849;DHT22;11089;49.852;19.700;2024-01-10T17:59:21;-5.30;99.90
21849;DHT22;11089;49.852;19.700;2024-01-10T18:02:22;-5.30;1.00
21849;DHT22;11089;49.852;19.700;2024-01-10T18:05:23;-5.30;1.00
21849;DHT22;11089;49.852;19.700;2024-01-10T18:08:24;-5.40;99.90
21849;DHT22;11089;49.852;19.700;2024-01-10T18:11:25;-5.40;99.90
21849;DHT22;11089;49.852;19.700;2024-01-10T18:14:26;-5.60;1.00
21849;DHT22;11089;49.852;19.700;2024-01-10T18:17:27;-5.70;1.00
21849;DHT22;11089;49.852;19.700;2024-01-10T18:20:28;-5.70;99.90
21849;DHT22;11089;49.852;19.700;2024-01-10T18:23:29;-5.60;99.90
21849;DHT22;11089;49.852;19.700;2024-01-10T18:26:31;-5.50;99.90
21849;DHT22;11089;49.852;19.700;2024-01-10T18:29:32;-5.70;99.90
21849;DHT22;11089;49.852;19.700;2024-01-10T18:32:33;-5.80;99.90
21849;DHT22;11089;49.852;19.700;2024-01-10T18:35:34;-5.70;99.90
21849;DHT22;11089;49.852;19.700;2024-01-10T18:38:35;-5.60;1.00
21849;DHT22;11089;49.852;19.700;2024-01-10T18:41:36;-5.40;99.90
21849;DHT22;11089;49.852;19.700;2024-01-10T18:44:39;-5.40;1.00
21849;DHT22;11089;49.852;19.700;2024-01-10T18:47:40;-5.40;99.90
21849;DHT22;11089;49.852;19.700;2024-01-10T18:50:41;-5.50;99.90
21849;DHT22;11089;49.852;19.700;2024-01-10T18:53:44;-5.50;99.90
21849;DHT22;11089;49.852;19.700;2024-01-10T18:56:46;-5.50;1.00
21849;DHT22;11089;49.852;19.700;2024-01-10T18:59:47;-5.50;99.90
21849;DHT22;11089;49.852;19.700;2024-01-10T19:02:52;-5.50;1.00
21849;DHT22;11089;49.852;19.700;2024-01-10T19:05:53;-5.50;99.90
21849;DHT22;11089;49.852;19.700;2024-01-10T19:08:54;-5.40;1.00
21849;DHT22;11089;49.852;19.700;2024-01-10T19:11:55;-5.50;1.00